sensor_id;sensor_type;location;lat;lon;timestamp;P1;P2;P0
64138;PMS5003;50435;43.700;-79.318;2024-03-06T00:00:59;12;11;
64138;PMS5003;50435;43.700;-79.318;2024-03-06T00:03:26;10;10;
64138;PMS5003;50435;43.700;-79.318;2024-03-06T00:05:54;9;9;
64138;PMS5003;50435;43.700;-79.318;2024-03-06T00:08:21;11;10;
64138;PMS5003;50435;43.700;-79.318;2024-03-06T00:10:49;17;15;
64138;PMS5003;50435;43.700;-79.318;2024-03-06T00:13:16;13;12;
64138;PMS5003;50435;43.700;-79.318;2024-03-06T00:15:44;12;12;
64138;PMS5003;50435;43.700;-79.318;2024-03-06T00:18:11;11;11;
64138;PMS5003;50435;43.700;-79.318;2024-03-06T00:20:39;14;13;
64138;PMS5003;50435;43.700;-79.318;2024-03-06T00:23:07;11;11;
64138;PMS5003;50435;43.700;-79.318;2024-03-06T00:25:34;11;11;
64138;PMS5003;50435;43.700;-79.318;2024-03-06T00:28:02;15;13;
64138;PMS5003;50435;43.700;-79.318;2024-03-06T00:30:30;13;12;
64138;PMS5003;50435;43.700;-79.318;2024-03-06T00:32:57;11;10;
64138;PMS5003;50435;43.700;-79.318;2024-03-06T00:35:24;12;11;
64138;PMS5003;50435;43.700;-79.318;2024-03-06T00:37:52;12;12;
64138;PMS5003;50435;43.700;-79.318;2024-03-06T00:40:20;11;10;
64138;PMS5003;50435;43.700;-79.318;2024-03-06T00:42:47;13;12;
64138;PMS5003;50435;43.700;-79.318;2024-03-06T00:45:15;11;11;
64138;PMS5003;50435;43.700;-79.318;2024-03-06T00:47:43;11;11;
64138;PMS5003;50435;43.700;-79.318;2024-03-06T00:50:11;12;12;
64138;PMS5003;50435;43.700;-79.318;2024-03-06T00:52:39;14;14;
64138;PMS5003;50435;43.700;-79.318;2024-03-06T00:55:06;12;10;
64138;PMS5003;50435;43.700;-79.318;2024-03-06T00:57:34;8;8;
64138;PMS5003;50435;43.700;-79.318;2024-03-06T01:00:01;14;14;
64138;PMS5003;50435;43.700;-79.318;2024-03-06T01:02:29;13;13;
64138;PMS5003;50435;43.700;-79.318;2024-03-06T01:04:56;16;15;
64138;PMS5003;50435;43.700;-79.318;2024-03-06T01:07:24;14;12;
64138;PMS5003;50435;43.700;-79.318;2024-03-06T01:09:51;15;12;
64138;PMS5003;50435;43.700;-79.318;2024-03-06T01:12:19;15;13;
64138;PMS5003;50435;43.700;-79.318;2024-03-06T01:14:46;14;14;
64138;PMS5003;50435;43.700;-79.318;2024-03-06T01:17:14;16;14;
64138;PMS5003;50435;43.700;-79.318;2024-03-06T01:19:42;14;13;
64138;PMS5003;50435;43.700;-79.318;2024-03-06T01:22:09;16;15;
64138;PMS5003;50435;43.700;-79.318;2024-03-06T01:24:37;19;19;
64138;PMS5003;50435;43.700;-79.318;2024-03-06T01:27:05;17;15;
64138;PMS5003;50435;43.700;-79.318;2024-03-06T01:29:33;19;19;
64138;PMS5003;50435;43.700;-79.318;2024-03-06T01:32:01;17;17;
64138;PMS5003;50435;43.700;-79.318;2024-03-06T01:34:29;17;16;
64138;PMS5003;50435;43.700;-79.318;2024-03-06T01:36:56;17;17;
64138;PMS5003;50435;43.700;-79.318;2024-03-06T01:39:23;15;15;
64138;PMS5003;50435;43.700;-79.318;2024-03-06T01:41:51;22;21;
64138;PMS5003;50435;43.700;-79.318;2024-03-06T01:44:18;17;16;
64138;PMS5003;50435;43.700;-79.318;2024-03-06T01:46:45;24;22;
64138;PMS5003;50435;43.700;-79.318;2024-03-06T01:49:13;18;16;
64138;PMS5003;50435;43.700;-79.318;2024-03-06T01:51:42;16;15;
64138;PMS5003;50435;43.700;-79.318;2024-03-06T01:54:15;15;15;
64138;PMS5003;50435;43.700;-79.318;2024-03-06T01:56:44;15;15;
64138;PMS5003;50435;43.700;-79.318;2024-03-06T01:59:12;18;14;
64138;PMS5003;50435;43.700;-79.318;2024-03-06T02:01:41;17;17;
64138;PMS5003;50435;43.700;-79.318;2024-03-06T02:04:09;20;17;
64138;PMS5003;50435;43.700;-79.318;2024-03-06T02:06:39;22;18;
64138;PMS5003;50435;43.700;-79.318;2024-03-06T02:09:07;15;15;
64138;PMS5003;50435;43.700;-79.318;2024-03-06T02:11:35;15;15;
64138;PMS5003;50435;43.700;-79.318;2024-03-06T02:14:02;14;14;
64138;PMS5003;50435;43.700;-79.318;2024-03-06T02:16:29;19;16;
64138;PMS5003;50435;43.700;-79.318;2024-03-06T02:18:57;17;17;
64138;PMS5003;50435;43.700;-79.318;2024-03-06T02:21:24;14;14;
64138;PMS5003;50435;43.700;-79.318;2024-03-06T02:23:52;16;15;
64138;PMS5003;50435;43.700;-79.318;2024-03-06T02:26:20;13;12;
64138;PMS5003;50435;43.700;-79.318;2024-03-06T02:28:49;14;14;
64138;PMS5003;50435;43.700;-79.318;2024-03-06T02:31:17;13;13;
64138;PMS5003;50435;43.700;-79.318;2024-03-06T02:33:47;17;16;
64138;PMS5003;50435;43.700;-79.318;2024-03-06T02:36:16;13;13;
64138;PMS5003;50435;43.700;-79.318;2024-03-06T02:38:44;18;17;
64138;PMS5003;50435;43.700;-79.318;2024-03-06T02:41:12;16;14;
64138;PMS5003;50435;43.700;-79.318;2024-03-06T02:43:40;16;16;
64138;PMS5003;50435;43.700;-79.318;2024-03-06T02:46:07;14;14;
64138;PMS5003;50435;43.700;-79.318;2024-03-06T02:48:35;19;17;
64138;PMS5003;50435;43.700;-79.318;2024-03-06T02:51:02;20;15;
64138;PMS5003;50435;43.700;-79.318;2024-03-06T02:53:30;16;16;
64138;PMS5003;50435;43.700;-79.318;2024-03-06T02:55:58;19;17;
64138;PMS5003;50435;43.700;-79.318;2024-03-06T02:58:25;16;16;
64138;PMS5003;50435;43.700;-79.318;2024-03-06T03:00:52;15;14;
64138;PMS5003;50435;43.700;-79.318;2024-03-06T03:03:20;15;15;
64138;PMS5003;50435;43.700;-79.318;2024-03-06T03:05:47;20;19;
64138;PMS5003;50435;43.700;-79.318;2024-03-06T03:08:14;14;14;
64138;PMS5003;50435;43.700;-79.318;2024-03-06T03:10:41;19;16;
64138;PMS5003;50435;43.700;-79.318;2024-03-06T03:13:09;18;18;
64138;PMS5003;50435;43.700;-79.318;2024-03-06T03:15:36;17;16;
64138;PMS5003;50435;43.700;-79.318;2024-03-06T03:18:04;19;15;
64138;PMS5003;50435;43.700;-79.318;2024-03-06T03:20:31;17;17;
64138;PMS5003;50435;43.700;-79.318;2024-03-06T03:23:00;21;20;
64138;PMS5003;50435;43.700;-79.318;2024-03-06T03:25:27;21;20;
64138;PMS5003;50435;43.700;-79.318;2024-03-06T03:27:55;20;20;
64138;PMS5003;50435;43.700;-79.318;2024-03-06T03:30:23;19;19;
64138;PMS5003;50435;43.700;-79.318;2024-03-06T03:32:50;17;16;
64138;PMS5003;50435;43.700;-79.318;2024-03-06T03:35:17;21;21;
64138;PMS5003;50435;43.700;-79.318;2024-03-06T03:37:45;21;21;
64138;PMS5003;50435;43.700;-79.318;2024-03-06T03:40:12;27;22;
64138;PMS5003;50435;43.700;-79.318;2024-03-06T03:42:40;20;20;
64138;PMS5003;50435;43.700;-79.318;2024-03-06T03:45:07;24;22;
64138;PMS5003;50435;43.700;-79.318;2024-03-06T03:47:35;23;20;
64138;PMS5003;50435;43.700;-79.318;2024-03-06T03:50:04;20;19;
64138;PMS5003;50435;43.700;-79.318;2024-03-06T03:52:32;20;20;
64138;PMS5003;50435;43.700;-79.318;2024-03-06T03:54:59;26;23;
64138;PMS5003;50435;43.700;-79.318;2024-03-06T03:57:26;25;24;
64138;PMS5003;50435;43.700;-79.318;2024-03-06T03:59:54;24;23;
64138;PMS5003;50435;43.700;-79.318;2024-03-06T04:02:21;21;21;
64138;PMS5003;50435;43.700;-79.318;2024-03-06T04:04:48;25;24;
64138;PMS5003;50435;43.700;-79.318;2024-03-06T04:07:16;24;22;
64138;PMS5003;50435;43.700;-79.318;2024-03-06T04:09:43;25;24;
64138;PMS5003;50435;43.700;-79.318;2024-03-06T04:12:11;22;19;
64138;PMS5003;50435;43.700;-79.318;2024-03-06T04:14:38;21;21;
64138;PMS5003;50435;43.700;-79.318;2024-03-06T04:17:06;21;21;
64138;PMS5003;50435;43.700;-79.318;2024-03-06T04:19:33;21;21;
64138;PMS5003;50435;43.700;-79.318;2024-03-06T04:22:00;28;23;
64138;PMS5003;50435;43.700;-79.318;2024-03-06T04:24:28;24;23;
64138;PMS5003;50435;43.700;-79.318;2024-03-06T04:26:55;24;24;
64138;PMS5003;50435;43.700;-79.318;2024-03-06T04:29:22;25;24;
64138;PMS5003;50435;43.700;-79.318;2024-03-06T04:31:50;19;19;
64138;PMS5003;50435;43.700;-79.318;2024-03-06T04:34:18;22;21;
64138;PMS5003;50435;43.700;-79.318;2024-03-06T04:36:45;26;22;
64138;PMS5003;50435;43.700;-79.318;2024-03-06T04:39:12;20;20;
64138;PMS5003;50435;43.700;-79.318;2024-03-06T04:41:40;27;25;
64138;PMS5003;50435;43.700;-79.318;2024-03-06T04:44:08;22;18;
64138;PMS5003;50435;43.700;-79.318;2024-03-06T04:46:35;18;17;
64138;PMS5003;50435;43.700;-79.318;2024-03-06T04:49:03;30;24;
64138;PMS5003;50435;43.700;-79.318;2024-03-06T04:51:30;22;20;
64138;PMS5003;50435;43.700;-79.318;2024-03-06T04:53:57;22;21;
64138;PMS5003;50435;43.700;-79.318;2024-03-06T04:56:24;22;20;
64138;PMS5003;50435;43.700;-79.318;2024-03-06T04:58:52;17;16;
64138;PMS5003;50435;43.700;-79.318;2024-03-06T05:01:19;23;22;
64138;PMS5003;50435;43.700;-79.318;2024-03-06T05:03:47;25;24;
64138;PMS5003;50435;43.700;-79.318;2024-03-06T05:06:14;16;15;
64138;PMS5003;50435;43.700;-79.318;2024-03-06T05:08:42;15;15;
64138;PMS5003;50435;43.700;-79.318;2024-03-06T05:11:09;16;16;
64138;PMS5003;50435;43.700;-79.318;2024-03-06T05:13:37;19;19;
64138;PMS5003;50435;43.700;-79.318;2024-03-06T05:16:04;14;14;
64138;PMS5003;50435;43.700;-79.318;2024-03-06T05:18:33;15;15;
64138;PMS5003;50435;43.700;-79.318;2024-03-06T05:21:01;18;15;
64138;PMS5003;50435;43.700;-79.318;2024-03-06T05:23:29;23;20;
64138;PMS5003;50435;43.700;-79.318;2024-03-06T05:25:56;16;14;
64138;PMS5003;50435;43.700;-79.318;2024-03-06T05:28:24;14;13;
64138;PMS5003;50435;43.700;-79.318;2024-03-06T05:30:51;9;9;
64138;PMS5003;50435;43.700;-79.318;2024-03-06T05:33:19;12;12;
64138;PMS5003;50435;43.700;-79.318;2024-03-06T05:35:46;11;11;
64138;PMS5003;50435;43.700;-79.318;2024-03-06T05:38:13;12;11;
64138;PMS5003;50435;43.700;-79.318;2024-03-06T05:40:41;11;10;
64138;PMS5003;50435;43.700;-79.318;2024-03-06T05:43:08;11;10;
64138;PMS5003;50435;43.700;-79.318;2024-03-06T05:45:35;9;8;
64138;PMS5003;50435;43.700;-79.318;2024-03-06T05:48:03;9;8;
64138;PMS5003;50435;43.700;-79.318;2024-03-06T05:50:30;7;7;
64138;PMS5003;50435;43.700;-79.318;2024-03-06T05:52:57;9;7;
64138;PMS5003;50435;43.700;-79.318;2024-03-06T05:55:24;6;6;
64138;PMS5003;50435;43.700;-79.318;2024-03-06T05:57:52;7;6;
64138;PMS5003;50435;43.700;-79.318;2024-03-06T06:00:19;9;4;
64138;PMS5003;50435;43.700;-79.318;2024-03-06T06:02:47;5;5;
64138;PMS5003;50435;43.700;-79.318;2024-03-06T06:05:15;6;4;
64138;PMS5003;50435;43.700;-79.318;2024-03-06T06:07:43;3;3;
64138;PMS5003;50435;43.700;-79.318;2024-03-06T06:10:10;4;4;
64138;PMS5003;50435;43.700;-79.318;2024-03-06T06:12:37;7;6;
64138;PMS5003;50435;43.700;-79.318;2024-03-06T06:15:05;5;2;
64138;PMS5003;50435;43.700;-79.318;2024-03-06T06:17:32;2;2;
64138;PMS5003;50435;43.700;-79.318;2024-03-06T06:20:00;2;2;
64138;PMS5003;50435;43.700;-79.318;2024-03-06T06:22:28;2;1;
64138;PMS5003;50435;43.700;-79.318;2024-03-06T06:24:55;2;1;
64138;PMS5003;50435;43.700;-79.318;2024-03-06T06:27:22;2;2;
64138;PMS5003;50435;43.700;-79.318;2024-03-06T06:29:49;2;2;
64138;PMS5003;50435;43.700;-79.318;2024-03-06T06:32:16;3;3;
64138;PMS5003;50435;43.700;-79.318;2024-03-06T06:34:44;2;2;
64138;PMS5003;50435;43.700;-79.318;2024-03-06T06:37:11;1;1;
64138;PMS5003;50435;43.700;-79.318;2024-03-06T06:39:38;1;1;
64138;PMS5003;50435;43.700;-79.318;2024-03-06T06:42:05;2;2;
64138;PMS5003;50435;43.700;-79.318;2024-03-06T06:44:32;3;2;
64138;PMS5003;50435;43.700;-79.318;2024-03-06T06:46:59;3;2;
64138;PMS5003;50435;43.700;-79.318;2024-03-06T06:49:26;1;1;
64138;PMS5003;50435;43.700;-79.318;2024-03-06T06:51:53;1;1;
64138;PMS5003;50435;43.700;-79.318;2024-03-06T06:54:21;2;2;
64138;PMS5003;50435;43.700;-79.318;2024-03-06T06:56:48;1;1;
64138;PMS5003;50435;43.700;-79.318;2024-03-06T06:59:15;0;0;
64138;PMS5003;50435;43.700;-79.318;2024-03-06T07:01:42;3;2;
64138;PMS5003;50435;43.700;-79.318;2024-03-06T07:04:09;1;1;
64138;PMS5003;50435;43.700;-79.318;2024-03-06T07:06:36;1;1;
64138;PMS5003;50435;43.700;-79.318;2024-03-06T07:09:03;1;1;
64138;PMS5003;50435;43.700;-79.318;2024-03-06T07:11:31;1;1;
64138;PMS5003;50435;43.700;-79.318;2024-03-06T07:13:58;1;1;
64138;PMS5003;50435;43.700;-79.318;2024-03-06T07:16:25;3;2;
64138;PMS5003;50435;43.700;-79.318;2024-03-06T07:18:52;0;0;
64138;PMS5003;50435;43.700;-79.318;2024-03-06T07:21:19;2;1;
64138;PMS5003;50435;43.700;-79.318;2024-03-06T07:23:46;0;0;
64138;PMS5003;50435;43.700;-79.318;2024-03-06T07:26:13;1;1;
64138;PMS5003;50435;43.700;-79.318;2024-03-06T07:28:40;1;1;
64138;PMS5003;50435;43.700;-79.318;2024-03-06T07:31:07;1;1;
64138;PMS5003;50435;43.700;-79.318;2024-03-06T07:33:34;1;1;
64138;PMS5003;50435;43.700;-79.318;2024-03-06T07:36:02;0;0;
64138;PMS5003;50435;43.700;-79.318;2024-03-06T07:38:29;1;1;
64138;PMS5003;50435;43.700;-79.318;2024-03-06T07:40:57;4;4;
64138;PMS5003;50435;43.700;-79.318;2024-03-06T07:43:24;1;1;
64138;PMS5003;50435;43.700;-79.318;2024-03-06T07:45:52;2;1;
64138;PMS5003;50435;43.700;-79.318;2024-03-06T07:48:19;2;2;
64138;PMS5003;50435;43.700;-79.318;2024-03-06T07:50:46;2;2;
64138;PMS5003;50435;43.700;-79.318;2024-03-06T07:53:14;1;1;
64138;PMS5003;50435;43.700;-79.318;2024-03-06T07:55:41;1;1;
64138;PMS5003;50435;43.700;-79.318;2024-03-06T07:58:09;1;1;
64138;PMS5003;50435;43.700;-79.318;2024-03-06T08:00:36;1;1;
64138;PMS5003;50435;43.700;-79.318;2024-03-06T08:03:03;0;0;
64138;PMS5003;50435;43.700;-79.318;2024-03-06T08:05:31;0;0;
64138;PMS5003;50435;43.700;-79.318;2024-03-06T08:07:58;1;1;
64138;PMS5003;50435;43.700;-79.318;2024-03-06T08:10:25;1;1;
64138;PMS5003;50435;43.700;-79.318;2024-03-06T08:12:52;0;0;
64138;PMS5003;50435;43.700;-79.318;2024-03-06T08:15:19;1;1;
64138;PMS5003;50435;43.700;-79.318;2024-03-06T08:17:47;1;1;
64138;PMS5003;50435;43.700;-79.318;2024-03-06T08:20:16;1;1;
64138;PMS5003;50435;43.700;-79.318;2024-03-06T08:22:43;1;1;
64138;PMS5003;50435;43.700;-79.318;2024-03-06T08:25:11;0;0;
64138;PMS5003;50435;43.700;-79.318;2024-03-06T08:27:40;1;1;
64138;PMS5003;50435;43.700;-79.318;2024-03-06T08:30:08;1;1;
64138;PMS5003;50435;43.700;-79.318;2024-03-06T08:32:36;1;1;
64138;PMS5003;50435;43.700;-79.318;2024-03-06T08:35:03;0;0;
64138;PMS5003;50435;43.700;-79.318;2024-03-06T08:37:32;0;0;
64138;PMS5003;50435;43.700;-79.318;2024-03-06T08:40:00;0;0;
64138;PMS5003;50435;43.700;-79.318;2024-03-06T08:42:27;1;0;
64138;PMS5003;50435;43.700;-79.318;2024-03-06T08:44:55;3;1;
64138;PMS5003;50435;43.700;-79.318;2024-03-06T08:47:23;2;0;
64138;PMS5003;50435;43.700;-79.318;2024-03-06T08:49:50;1;1;
64138;PMS5003;50435;43.700;-79.318;2024-03-06T08:52:17;0;0;
64138;PMS5003;50435;43.700;-79.318;2024-03-06T08:54:44;1;1;
64138;PMS5003;50435;43.700;-79.318;2024-03-06T08:57:12;0;0;
64138;PMS5003;50435;43.700;-79.318;2024-03-06T08:59:40;0;0;
64138;PMS5003;50435;43.700;-79.318;2024-03-06T09:02:12;1;0;
64138;PMS5003;50435;43.700;-79.318;2024-03-06T09:04:40;1;1;
64138;PMS5003;50435;43.700;-79.318;2024-03-06T09:07:08;1;1;
64138;PMS5003;50435;43.700;-79.318;2024-03-06T09:09:36;0;0;
64138;PMS5003;50435;43.700;-79.318;2024-03-06T09:12:04;1;1;
64138;PMS5003;50435;43.700;-79.318;2024-03-06T09:14:33;0;0;
64138;PMS5003;50435;43.700;-79.318;2024-03-06T09:17:02;0;0;
64138;PMS5003;50435;43.700;-79.318;2024-03-06T09:19:30;1;1;
64138;PMS5003;50435;43.700;-79.318;2024-03-06T09:21:59;1;1;
64138;PMS5003;50435;43.700;-79.318;2024-03-06T09:24:26;0;0;
64138;PMS5003;50435;43.700;-79.318;2024-03-06T09:26:53;1;1;
64138;PMS5003;50435;43.700;-79.318;2024-03-06T09:29:21;1;1;
64138;PMS5003;50435;43.700;-79.318;2024-03-06T09:31:48;0;0;
64138;PMS5003;50435;43.700;-79.318;2024-03-06T09:34:15;0;0;
64138;PMS5003;50435;43.700;-79.318;2024-03-06T09:36:45;1;1;
64138;PMS5003;50435;43.700;-79.318;2024-03-06T09:39:14;0;0;
64138;PMS5003;50435;43.700;-79.318;2024-03-06T09:41:42;0;0;
64138;PMS5003;50435;43.700;-79.318;2024-03-06T09:44:10;0;0;
64138;PMS5003;50435;43.700;-79.318;2024-03-06T09:46:38;0;0;
64138;PMS5003;50435;43.700;-79.318;2024-03-06T09:49:08;0;0;
64138;PMS5003;50435;43.700;-79.318;2024-03-06T09:51:36;0;0;
64138;PMS5003;50435;43.700;-79.318;2024-03-06T09:54:05;0;0;
64138;PMS5003;50435;43.700;-79.318;2024-03-06T09:56:35;0;0;
64138;PMS5003;50435;43.700;-79.318;2024-03-06T09:59:02;1;1;
64138;PMS5003;50435;43.700;-79.318;2024-03-06T10:01:31;0;0;
64138;PMS5003;50435;43.700;-79.318;2024-03-06T10:03:59;1;0;
64138;PMS5003;50435;43.700;-79.318;2024-03-06T10:06:26;1;1;
64138;PMS5003;50435;43.700;-79.318;2024-03-06T10:08:53;0;0;
64138;PMS5003;50435;43.700;-79.318;2024-03-06T10:11:28;0;0;
64138;PMS5003;50435;43.700;-79.318;2024-03-06T10:13:55;0;0;
64138;PMS5003;50435;43.700;-79.318;2024-03-06T10:16:22;0;0;
64138;PMS5003;50435;43.700;-79.318;2024-03-06T10:18:49;1;1;
64138;PMS5003;50435;43.700;-79.318;2024-03-06T10:21:16;0;0;
64138;PMS5003;50435;43.700;-79.318;2024-03-06T10:23:57;0;0;
64138;PMS5003;50435;43.700;-79.318;2024-03-06T10:26:25;1;1;
64138;PMS5003;50435;43.700;-79.318;2024-03-06T10:28:52;0;0;
64138;PMS5003;50435;43.700;-79.318;2024-03-06T10:31:26;0;0;
64138;PMS5003;50435;43.700;-79.318;2024-03-06T10:33:54;0;0;
64138;PMS5003;50435;43.700;-79.318;2024-03-06T10:36:21;0;0;
64138;PMS5003;50435;43.700;-79.318;2024-03-06T10:38:52;1;1;
64138;PMS5003;50435;43.700;-79.318;2024-03-06T10:41:23;1;1;
64138;PMS5003;50435;43.700;-79.318;2024-03-06T10:43:51;0;0;
64138;PMS5003;50435;43.700;-79.318;2024-03-06T10:46:21;0;0;
64138;PMS5003;50435;43.700;-79.318;2024-03-06T10:48:50;0;0;
64138;PMS5003;50435;43.700;-79.318;2024-03-06T10:51:19;0;0;
64138;PMS5003;50435;43.700;-79.318;2024-03-06T10:53:47;0;0;
64138;PMS5003;50435;43.700;-79.318;2024-03-06T10:56:16;0;0;
64138;PMS5003;50435;43.700;-79.318;2024-03-06T10:58:44;0;0;
64138;PMS5003;50435;43.700;-79.318;2024-03-06T11:01:17;0;0;
64138;PMS5003;50435;43.700;-79.318;2024-03-06T11:03:45;0;0;
64138;PMS5003;50435;43.700;-79.318;2024-03-06T11:06:13;1;0;
64138;PMS5003;50435;43.700;-79.318;2024-03-06T11:08:40;1;1;
64138;PMS5003;50435;43.700;-79.318;2024-03-06T11:11:24;1;1;
64138;PMS5003;50435;43.700;-79.318;2024-03-06T11:13:54;0;0;
64138;PMS5003;50435;43.700;-79.318;2024-03-06T11:16:26;0;0;
64138;PMS5003;50435;43.700;-79.318;2024-03-06T11:19:04;0;0;
64138;PMS5003;50435;43.700;-79.318;2024-03-06T11:21:32;1;1;
64138;PMS5003;50435;43.700;-79.318;2024-03-06T11:24:17;0;0;
64138;PMS5003;50435;43.700;-79.318;2024-03-06T11:26:46;0;0;
64138;PMS5003;50435;43.700;-79.318;2024-03-06T11:29:16;1;1;
64138;PMS5003;50435;43.700;-79.318;2024-03-06T11:32:16;0;0;
64138;PMS5003;50435;43.700;-79.318;2024-03-06T11:34:44;1;0;
64138;PMS5003;50435;43.700;-79.318;2024-03-06T11:37:11;0;0;
64138;PMS5003;50435;43.700;-79.318;2024-03-06T11:39:39;0;0;
64138;PMS5003;50435;43.700;-79.318;2024-03-06T11:42:06;0;0;
64138;PMS5003;50435;43.700;-79.318;2024-03-06T11:44:34;0;0;
64138;PMS5003;50435;43.700;-79.318;2024-03-06T11:47:03;0;0;
64138;PMS5003;50435;43.700;-79.318;2024-03-06T11:49:31;0;0;
64138;PMS5003;50435;43.700;-79.318;2024-03-06T11:52:00;1;1;
64138;PMS5003;50435;43.700;-79.318;2024-03-06T11:54:30;0;0;
64138;PMS5003;50435;43.700;-79.318;2024-03-06T11:56:59;1;1;
64138;PMS5003;50435;43.700;-79.318;2024-03-06T11:59:28;0;0;
64138;PMS5003;50435;43.700;-79.318;2024-03-06T12:01:59;1;1;
64138;PMS5003;50435;43.700;-79.318;2024-03-06T12:04:29;0;0;
64138;PMS5003;50435;43.700;-79.318;2024-03-06T12:06:59;0;0;
64138;PMS5003;50435;43.700;-79.318;2024-03-06T12:09:27;0;0;
64138;PMS5003;50435;43.700;-79.318;2024-03-06T12:11:56;1;1;
64138;PMS5003;50435;43.700;-79.318;2024-03-06T12:14:24;0;0;
64138;PMS5003;50435;43.700;-79.318;2024-03-06T12:16:55;0;0;
64138;PMS5003;50435;43.700;-79.318;2024-03-06T12:19:25;2;2;
64138;PMS5003;50435;43.700;-79.318;2024-03-06T12:21:53;0;0;
64138;PMS5003;50435;43.700;-79.318;2024-03-06T12:24:21;0;0;
64138;PMS5003;50435;43.700;-79.318;2024-03-06T12:26:57;1;1;
64138;PMS5003;50435;43.700;-79.318;2024-03-06T12:29:27;1;1;
64138;PMS5003;50435;43.700;-79.318;2024-03-06T12:31:56;2;2;
64138;PMS5003;50435;43.700;-79.318;2024-03-06T12:34:24;2;2;
64138;PMS5003;50435;43.700;-79.318;2024-03-06T12:36:52;0;0;
64138;PMS5003;50435;43.700;-79.318;2024-03-06T12:39:19;1;1;
64138;PMS5003;50435;43.700;-79.318;2024-03-06T12:41:46;1;1;
64138;PMS5003;50435;43.700;-79.318;2024-03-06T12:44:14;1;1;
64138;PMS5003;50435;43.700;-79.318;2024-03-06T12:46:42;1;1;
64138;PMS5003;50435;43.700;-79.318;2024-03-06T12:49:09;1;1;
64138;PMS5003;50435;43.700;-79.318;2024-03-06T12:51:36;2;2;
64138;PMS5003;50435;43.700;-79.318;2024-03-06T12:54:03;0;0;
64138;PMS5003;50435;43.700;-79.318;2024-03-06T12:56:31;1;1;
64138;PMS5003;50435;43.700;-79.318;2024-03-06T12:58:58;0;0;
64138;PMS5003;50435;43.700;-79.318;2024-03-06T13:01:25;2;2;
64138;PMS5003;50435;43.700;-79.318;2024-03-06T13:03:53;1;1;
64138;PMS5003;50435;43.700;-79.318;2024-03-06T13:06:20;1;1;
64138;PMS5003;50435;43.700;-79.318;2024-03-06T13:08:48;1;1;
64138;PMS5003;50435;43.700;-79.318;2024-03-06T13:11:15;1;1;
64138;PMS5003;50435;43.700;-79.318;2024-03-06T13:13:42;1;0;
64138;PMS5003;50435;43.700;-79.318;2024-03-06T13:16:09;1;1;
64138;PMS5003;50435;43.700;-79.318;2024-03-06T13:18:36;0;0;
64138;PMS5003;50435;43.700;-79.318;2024-03-06T13:21:05;0;0;
64138;PMS5003;50435;43.700;-79.318;2024-03-06T13:23:32;2;2;
64138;PMS5003;50435;43.700;-79.318;2024-03-06T13:25:59;1;1;
64138;PMS5003;50435;43.700;-79.318;2024-03-06T13:28:26;4;1;
64138;PMS5003;50435;43.700;-79.318;2024-03-06T13:30:54;0;0;
64138;PMS5003;50435;43.700;-79.318;2024-03-06T13:33:21;1;1;
64138;PMS5003;50435;43.700;-79.318;2024-03-06T13:35:48;1;1;
64138;PMS5003;50435;43.700;-79.318;2024-03-06T13:38:15;0;0;
64138;PMS5003;50435;43.700;-79.318;2024-03-06T13:40:43;0;0;
64138;PMS5003;50435;43.700;-79.318;2024-03-06T13:43:10;0;0;
64138;PMS5003;50435;43.700;-79.318;2024-03-06T13:45:38;3;2;
64138;PMS5003;50435;43.700;-79.318;2024-03-06T13:48:16;1;1;
64138;PMS5003;50435;43.700;-79.318;2024-03-06T13:50:43;2;2;
64138;PMS5003;50435;43.700;-79.318;2024-03-06T13:53:10;1;1;
64138;PMS5003;50435;43.700;-79.318;2024-03-06T13:55:38;1;1;
64138;PMS5003;50435;43.700;-79.318;2024-03-06T13:58:05;1;1;
64138;PMS5003;50435;43.700;-79.318;2024-03-06T14:00:32;1;1;
64138;PMS5003;50435;43.700;-79.318;2024-03-06T14:03:00;1;1;
64138;PMS5003;50435;43.700;-79.318;2024-03-06T14:05:28;1;1;
64138;PMS5003;50435;43.700;-79.318;2024-03-06T14:07:55;1;1;
64138;PMS5003;50435;43.700;-79.318;2024-03-06T14:10:23;1;1;
64138;PMS5003;50435;43.700;-79.318;2024-03-06T14:12:50;2;2;
64138;PMS5003;50435;43.700;-79.318;2024-03-06T14:15:17;1;1;
64138;PMS5003;50435;43.700;-79.318;2024-03-06T14:17:45;3;2;
64138;PMS5003;50435;43.700;-79.318;2024-03-06T14:20:12;1;1;
64138;PMS5003;50435;43.700;-79.318;2024-03-06T14:22:39;1;1;
64138;PMS5003;50435;43.700;-79.318;2024-03-06T14:25:06;1;1;
64138;PMS5003;50435;43.700;-79.318;2024-03-06T14:27:34;0;0;
64138;PMS5003;50435;43.700;-79.318;2024-03-06T14:30:01;3;3;
64138;PMS5003;50435;43.700;-79.318;2024-03-06T14:32:29;2;1;
64138;PMS5003;50435;43.700;-79.318;2024-03-06T14:34:56;1;1;
64138;PMS5003;50435;43.700;-79.318;2024-03-06T14:37:23;1;1;
64138;PMS5003;50435;43.700;-79.318;2024-03-06T14:39:50;1;1;
64138;PMS5003;50435;43.700;-79.318;2024-03-06T14:42:17;1;1;
64138;PMS5003;50435;43.700;-79.318;2024-03-06T14:44:45;1;1;
64138;PMS5003;50435;43.700;-79.318;2024-03-06T14:47:13;2;1;
64138;PMS5003;50435;43.700;-79.318;2024-03-06T14:49:42;1;1;
64138;PMS5003;50435;43.700;-79.318;2024-03-06T14:52:09;0;0;
64138;PMS5003;50435;43.700;-79.318;2024-03-06T14:54:36;1;1;
64138;PMS5003;50435;43.700;-79.318;2024-03-06T14:57:03;1;1;
64138;PMS5003;50435;43.700;-79.318;2024-03-06T14:59:31;1;1;
64138;PMS5003;50435;43.700;-79.318;2024-03-06T15:01:58;1;1;
64138;PMS5003;50435;43.700;-79.318;2024-03-06T15:04:25;1;1;
64138;PMS5003;50435;43.700;-79.318;2024-03-06T15:06:52;1;1;
64138;PMS5003;50435;43.700;-79.318;2024-03-06T15:09:19;1;1;
64138;PMS5003;50435;43.700;-79.318;2024-03-06T15:11:46;1;1;
64138;PMS5003;50435;43.700;-79.318;2024-03-06T15:14:13;1;1;
64138;PMS5003;50435;43.700;-79.318;2024-03-06T15:16:40;2;2;
64138;PMS5003;50435;43.700;-79.318;2024-03-06T15:19:09;2;2;
64138;PMS5003;50435;43.700;-79.318;2024-03-06T15:21:36;1;1;
64138;PMS5003;50435;43.700;-79.318;2024-03-06T15:24:04;1;1;
64138;PMS5003;50435;43.700;-79.318;2024-03-06T15:26:32;1;1;
64138;PMS5003;50435;43.700;-79.318;2024-03-06T15:28:59;2;2;
64138;PMS5003;50435;43.700;-79.318;2024-03-06T15:31:26;1;1;
64138;PMS5003;50435;43.700;-79.318;2024-03-06T15:33:53;0;0;
64138;PMS5003;50435;43.700;-79.318;2024-03-06T15:36:21;0;0;
64138;PMS5003;50435;43.700;-79.318;2024-03-06T15:38:49;0;0;
64138;PMS5003;50435;43.700;-79.318;2024-03-06T15:41:16;1;0;
64138;PMS5003;50435;43.700;-79.318;2024-03-06T15:43:43;3;3;
64138;PMS5003;50435;43.700;-79.318;2024-03-06T15:46:11;1;1;
64138;PMS5003;50435;43.700;-79.318;2024-03-06T15:48:39;3;2;
64138;PMS5003;50435;43.700;-79.318;2024-03-06T15:51:06;5;2;
64138;PMS5003;50435;43.700;-79.318;2024-03-06T15:53:34;1;1;
64138;PMS5003;50435;43.700;-79.318;2024-03-06T15:56:02;1;1;
64138;PMS5003;50435;43.700;-79.318;2024-03-06T15:58:30;3;2;
64138;PMS5003;50435;43.700;-79.318;2024-03-06T16:00:58;3;2;
64138;PMS5003;50435;43.700;-79.318;2024-03-06T16:03:25;2;2;
64138;PMS5003;50435;43.700;-79.318;2024-03-06T16:05:53;3;2;
64138;PMS5003;50435;43.700;-79.318;2024-03-06T16:08:21;2;2;
64138;PMS5003;50435;43.700;-79.318;2024-03-06T16:10:48;1;1;